Time;durP1;ratioP1;P1;durP2;ratioP2;P2;SDS_P1;SDS_P2;PMS_P1;PMS_P2;Temp;Humidity;BMP_temperature;BMP_pressure;BME280_temperature;BME280_humidity;BME280_pressure;Samples;Min_cycle;Max_cycle;Signal;HPM_P1;HPM_P2
2020/12/05 00:01:42;;;;;;;25.77;17.87;;;4.80;99.90;;;;;;5089588;28;20180;-58
2020/12/05 00:04:07;;;;;;;23.97;18.27;;;5.10;99.90;;;;;;5089418;28;20189;-58
2020/12/05 00:06:33;;;;;;;29.73;19.37;;;5.00;99.90;;;;;;5088136;28;20551;-59
2020/12/05 00:08:58;;;;;;;27.10;18.73;;;5.00;99.90;;;;;;5084129;28;20259;-59
2020/12/05 00:11:28;;;;;;;24.83;18.50;;;4.70;99.90;;;;;;5088869;28;20649;-59
2020/12/05 00:13:54;;;;;;;24.55;17.98;;;4.70;99.90;;;;;;5088975;28;20197;-59
2020/12/05 00:16:20;;;;;;;26.13;18.10;;;4.90;99.90;;;;;;5088839;28;20200;-59
2020/12/05 00:18:47;;;;;;;22.85;17.50;;;4.70;99.90;;;;;;5088509;28;20442;-59
2020/12/05 00:21:16;;;;;;;23.55;16.60;;;4.50;99.90;;;;;;5089143;28;20672;-59
2020/12/05 00:23:42;;;;;;;24.95;17.58;;;4.40;99.90;;;;;;5088009;28;20662;-58
2020/12/05 00:26:08;;;;;;;26.10;19.60;;;4.70;99.90;;;;;;5088168;28;20209;-58
2020/12/05 00:28:33;;;;;;;24.23;18.37;;;4.70;99.90;;;;;;5087782;28;20180;-58
2020/12/05 00:30:59;;;;;;;22.87;17.43;;;4.60;99.90;;;;;;5088851;28;20696;-56
2020/12/05 00:33:24;;;;;;;24.10;17.97;;;4.60;99.90;;;;;;5087944;28;20230;-59
2020/12/05 00:35:50;;;;;;;28.40;18.40;;;4.60;99.90;;;;;;5087712;28;20799;-58
2020/12/05 00:38:17;;;;;;;25.10;18.00;;;4.40;99.90;;;;;;5088086;28;20181;-58
2020/12/05 00:40:42;;;;;;;24.65;17.17;;;4.50;99.90;;;;;;5083857;28;20233;-59
2020/12/05 00:43:10;;;;;;;27.57;19.73;;;4.40;99.90;;;;;;5088714;28;20617;-59
2020/12/05 00:45:35;;;;;;;23.63;18.08;;;4.30;99.90;;;;;;5085970;28;20315;-58
2020/12/05 00:48:01;;;;;;;23.67;17.90;;;4.50;99.90;;;;;;5084655;28;20279;-58
2020/12/05 00:50:26;;;;;;;32.47;19.30;;;4.50;99.90;;;;;;5087738;28;20196;-58
2020/12/05 00:52:52;;;;;;;24.73;18.70;;;4.10;99.90;;;;;;5087472;28;20184;-58
2020/12/05 00:55:17;;;;;;;26.90;19.80;;;4.40;99.90;;;;;;5088317;28;20208;-58
2020/12/05 00:57:43;;;;;;;24.53;17.90;;;4.60;99.90;;;;;;5089518;28;20189;-59
2020/12/05 01:00:09;;;;;;;22.47;17.80;;;4.60;99.90;;;;;;5087459;28;20278;-59
2020/12/05 01:02:35;;;;;;;24.23;18.30;;;4.50;99.90;;;;;;5088383;28;20188;-59
2020/12/05 01:05:00;;;;;;;24.57;17.97;;;4.40;99.90;;;;;;5087571;28;20278;-58
2020/12/05 01:07:26;;;;;;;24.43;18.90;;;4.80;99.90;;;;;;5088512;28;20184;-57
2020/12/05 01:09:53;;;;;;;26.15;18.52;;;4.60;99.90;;;;;;5087233;28;20209;-56
2020/12/05 01:12:19;;;;;;;24.83;18.02;;;4.50;99.90;;;;;;5088132;28;20184;-58
2020/12/05 01:14:45;;;;;;;25.63;19.45;;;4.50;99.90;;;;;;5088128;28;20209;-57
2020/12/05 01:17:10;;;;;;;22.37;17.63;;;4.70;99.90;;;;;;5087173;28;20194;-56
2020/12/05 01:19:36;;;;;;;26.67;18.70;;;4.30;99.90;;;;;;5085281;28;20330;-57
2020/12/05 01:22:02;;;;;;;24.37;17.47;;;5.10;99.90;;;;;;5085582;28;20221;-57
2020/12/05 01:24:27;;;;;;;25.13;18.90;;;4.70;99.90;;;;;;5087372;28;20560;-57
2020/12/05 01:26:53;;;;;;;27.03;18.97;;;4.80;99.90;;;;;;5086793;28;20181;-57
2020/12/05 01:29:18;;;;;;;31.70;19.50;;;4.60;99.90;;;;;;5088046;28;20263;-57
2020/12/05 01:31:48;;;;;;;26.37;17.40;;;4.80;99.90;;;;;;5087270;28;20212;-56
2020/12/05 01:34:15;;;;;;;22.95;17.17;;;4.90;99.90;;;;;;5087759;28;20292;-58
2020/12/05 01:36:47;;;;;;;23.50;17.60;;;5.10;99.90;;;;;;5087820;28;20221;-57
2020/12/05 01:39:13;;;;;;;22.58;16.45;;;5.20;99.90;;;;;;5087919;28;20188;-58
2020/12/05 01:41:39;;;;;;;24.47;17.97;;;5.00;99.90;;;;;;5086918;28;20189;-58
2020/12/05 01:44:05;;;;;;;21.88;16.38;;;5.00;99.90;;;;;;5085347;28;20465;-57
2020/12/05 01:46:37;;;;;;;23.13;17.17;;;5.10;99.90;;;;;;5085808;28;20655;-57
2020/12/05 01:49:03;;;;;;;24.05;17.63;;;5.00;99.90;;;;;;5084596;28;20199;-58
2020/12/05 01:51:31;;;;;;;24.65;17.73;;;5.00;99.90;;;;;;5087527;28;20272;-57
2020/12/05 01:53:56;;;;;;;28.75;17.67;;;4.90;99.90;;;;;;5087321;28;20180;-58
2020/12/05 01:56:24;;;;;;;25.17;19.10;;;4.80;99.90;;;;;;5086991;28;20267;-58
2020/12/05 01:58:50;;;;;;;23.50;18.45;;;4.40;99.90;;;;;;5076000;28;20431;-58
2020/12/05 02:01:21;;;;;;;24.50;17.90;;;4.60;99.90;;;;;;5087185;28;20188;-57
2020/12/05 02:03:48;;;;;;;24.63;18.85;;;4.80;99.90;;;;;;5085438;28;20180;-59
2020/12/05 02:06:24;;;;;;;23.70;17.10;;;4.90;99.90;;;;;;5086879;28;20211;-57
2020/12/05 02:09:17;;;;;;;25.90;17.75;;;4.80;99.90;;;;;;5086186;28;20329;-57
2020/12/05 02:11:50;;;;;;;25.35;19.13;;;4.90;99.90;;;;;;5087249;28;20698;-58
2020/12/05 02:14:20;;;;;;;30.55;19.30;;;4.50;99.90;;;;;;5091093;28;20208;-57
2020/12/05 02:16:47;;;;;;;23.67;19.20;;;4.50;99.90;;;;;;5091315;28;20188;-58
2020/12/05 02:19:20;;;;;;;27.15;19.73;;;4.50;99.90;;;;;;5092687;28;20680;-58
2020/12/05 02:21:47;;;;;;;24.27;17.50;;;4.40;99.90;;;;;;5087591;28;20200;-57
2020/12/05 02:24:13;;;;;;;25.02;19.23;;;4.50;99.90;;;;;;5090716;28;20315;-58
2020/12/05 02:26:42;;;;;;;28.00;18.30;;;4.60;99.90;;;;;;5107492;28;20181;-56
2020/12/05 02:29:09;;;;;;;21.50;16.23;;;4.70;99.90;;;;;;5090286;28;20246;-56
2020/12/05 02:31:36;;;;;;;20.58;16.08;;;4.70;99.90;;;;;;5090554;28;20216;-56
2020/12/05 02:34:03;;;;;;;18.20;14.52;;;4.90;99.90;;;;;;5090809;28;20268;-57
2020/12/05 02:36:33;;;;;;;18.67;14.38;;;4.70;99.90;;;;;;5090650;28;20210;-56
2020/12/05 02:39:05;;;;;;;20.70;14.30;;;4.70;99.90;;;;;;5089382;28;20184;-57
2020/12/05 02:41:39;;;;;;;16.70;13.90;;;4.80;99.90;;;;;;5090600;28;20268;-56
2020/12/05 02:44:05;;;;;;;18.75;13.85;;;4.80;99.90;;;;;;5089843;28;20177;-57
2020/12/05 02:46:31;;;;;;;19.02;14.15;;;4.70;99.90;;;;;;5090453;28;20231;-61
2020/12/05 02:48:57;;;;;;;14.70;11.95;;;4.40;99.90;;;;;;5090462;28;20183;-56
2020/12/05 02:51:22;;;;;;;14.67;12.53;;;4.50;99.90;;;;;;5090366;28;20184;-57
2020/12/05 02:53:49;;;;;;;15.37;11.20;;;4.70;99.90;;;;;;5089931;28;20214;-58
2020/12/05 02:56:18;;;;;;;16.58;11.75;;;4.60;99.90;;;;;;5090760;28;20204;-57
2020/12/05 02:58:45;;;;;;;13.95;11.52;;;4.90;99.90;;;;;;5089175;28;20181;-56
2020/12/05 03:01:11;;;;;;;15.73;11.93;;;4.90;99.90;;;;;;5090224;28;20189;-57
2020/12/05 03:03:37;;;;;;;13.43;11.88;;;4.50;99.90;;;;;;5090532;28;20826;-59
2020/12/05 03:06:03;;;;;;;13.68;11.00;;;4.50;99.90;;;;;;5090225;28;20219;-58
2020/12/05 03:08:28;;;;;;;14.97;12.40;;;4.60;99.90;;;;;;5090074;28;20567;-57
2020/12/05 03:10:54;;;;;;;13.50;11.60;;;4.20;99.90;;;;;;5090047;28;20245;-57
2020/12/05 03:13:20;;;;;;;14.23;11.60;;;4.30;99.90;;;;;;5091750;28;20589;-57
2020/12/05 03:15:45;;;;;;;13.27;11.87;;;4.40;99.90;;;;;;5089995;28;20211;-58
2020/12/05 03:18:11;;;;;;;16.60;12.17;;;4.20;99.90;;;;;;5089901;28;20698;-57
2020/12/05 03:20:37;;;;;;;15.60;12.73;;;4.40;99.90;;;;;;5089847;28;20213;-57
2020/12/05 03:23:02;;;;;;;16.30;12.33;;;4.40;99.90;;;;;;5090030;28;20185;-58
2020/12/05 03:25:28;;;;;;;13.10;11.20;;;4.50;99.90;;;;;;5089469;28;20226;-57
2020/12/05 03:27:54;;;;;;;12.33;10.83;;;4.30;99.90;;;;;;5089780;28;20291;-58
2020/12/05 03:30:19;;;;;;;16.03;12.27;;;4.50;99.90;;;;;;5086846;28;20266;-57
2020/12/05 03:32:46;;;;;;;16.30;13.57;;;4.30;99.90;;;;;;5077164;28;20670;-57
2020/12/05 03:35:11;;;;;;;17.00;13.20;;;4.10;99.90;;;;;;5087779;28;20207;-57
2020/12/05 03:37:38;;;;;;;14.70;11.80;;;4.10;99.90;;;;;;5083467;28;20547;-58
2020/12/05 03:40:05;;;;;;;15.35;12.25;;;4.10;99.90;;;;;;5089014;28;20254;-58
2020/12/05 03:42:31;;;;;;;15.20;12.57;;;4.20;99.90;;;;;;5089874;28;20242;-57
2020/12/05 03:44:56;;;;;;;14.57;12.20;;;4.10;99.90;;;;;;5088580;28;20204;-57
2020/12/05 03:47:22;;;;;;;16.60;12.10;;;4.20;99.90;;;;;;5089372;28;20444;-57
2020/12/05 03:49:48;;;;;;;15.70;12.80;;;4.00;99.90;;;;;;5086385;28;20208;-57
2020/12/05 03:52:15;;;;;;;13.93;11.57;;;4.20;99.90;;;;;;5089976;28;20214;-56
2020/12/05 03:54:41;;;;;;;14.20;11.60;;;4.20;99.90;;;;;;5097539;28;20247;-56
2020/12/05 03:57:07;;;;;;;13.43;11.18;;;4.00;99.90;;;;;;5088162;28;20177;-58
2020/12/05 03:59:36;;;;;;;14.60;11.80;;;4.10;99.90;;;;;;5089497;28;20177;-57
2020/12/05 04:02:01;;;;;;;14.98;11.65;;;3.80;99.90;;;;;;5086962;28;20200;-56
2020/12/05 04:04:27;;;;;;;13.80;11.23;;;4.20;99.90;;;;;;5088844;28;20201;-56
2020/12/05 04:06:52;;;;;;;16.40;14.20;;;4.50;99.90;;;;;;5090386;28;20186;-57
2020/12/05 04:09:18;;;;;;;14.07;12.57;;;4.40;99.90;;;;;;5088797;28;20270;-58
2020/12/05 04:11:44;;;;;;;17.53;13.27;;;4.20;99.90;;;;;;5088569;28;20184;-57
2020/12/05 04:14:10;;;;;;;17.10;13.10;;;4.10;99.90;;;;;;5089184;28;20195;-57
2020/12/05 04:16:37;;;;;;;17.13;12.35;;;4.40;99.90;;;;;;5088871;28;20193;-57
2020/12/05 04:19:03;;;;;;;15.07;12.50;;;4.30;99.90;;;;;;5089336;28;20185;-58
2020/12/05 04:21:29;;;;;;;15.32;12.57;;;4.20;99.90;;;;;;5088117;28;20555;-58
2020/12/05 04:23:54;;;;;;;14.93;12.20;;;4.70;99.90;;;;;;5083428;28;20181;-57
2020/12/05 04:26:23;;;;;;;15.80;11.67;;;4.40;99.90;;;;;;5085172;28;20199;-57
2020/12/05 04:28:49;;;;;;;13.82;11.18;;;4.20;99.90;;;;;;5088470;28;20191;-57
2020/12/05 04:31:16;;;;;;;12.93;10.63;;;4.50;99.90;;;;;;5088359;28;20189;-56
2020/12/05 04:33:42;;;;;;;12.70;9.95;;;4.40;99.90;;;;;;5112453;27;20173;-58
2020/12/05 04:36:08;;;;;;;15.70;11.30;;;4.40;99.90;;;;;;5088731;28;20742;-56
2020/12/05 04:38:33;;;;;;;12.25;10.43;;;4.60;99.90;;;;;;5088786;28;20176;-58
2020/12/05 04:41:00;;;;;;;11.87;10.47;;;4.30;99.90;;;;;;5087781;28;20196;-57
2020/12/05 04:43:26;;;;;;;11.65;10.18;;;4.60;99.90;;;;;;5088265;28;20603;-57
2020/12/05 04:45:53;;;;;;;12.65;10.15;;;4.60;99.90;;;;;;5086013;28;20205;-57
2020/12/05 04:48:20;;;;;;;11.25;9.13;;;4.60;99.90;;;;;;5087680;28;20180;-58
2020/12/05 04:50:47;;;;;;;11.85;9.82;;;4.60;99.90;;;;;;5088249;28;20288;-57
2020/12/05 04:53:22;;;;;;;14.27;9.82;;;4.40;99.90;;;;;;5085868;28;20195;-57
2020/12/05 04:55:52;;;;;;;12.27;10.25;;;4.40;99.90;;;;;;5088047;28;20203;-56
2020/12/05 04:58:22;;;;;;;12.20;10.20;;;4.30;99.90;;;;;;5082937;28;20184;-57
2020/12/05 05:00:53;;;;;;;11.65;10.20;;;4.30;99.90;;;;;;5087242;28;20192;-57
2020/12/05 05:03:22;;;;;;;11.02;9.85;;;4.30;99.90;;;;;;5088473;28;20268;-57
2020/12/05 05:05:52;;;;;;;11.27;9.85;;;4.60;99.90;;;;;;5083202;28;20219;-56
2020/12/05 05:08:17;;;;;;;11.70;9.63;;;4.70;99.90;;;;;;5086647;28;20275;-56
2020/12/05 05:10:43;;;;;;;14.17;9.77;;;4.50;99.90;;;;;;5087343;28;20295;-59
2020/12/05 05:15:41;;;;;;;10.27;9.13;;;4.50;99.90;;;;;;5089578;28;20455;-57
2020/12/05 05:18:08;;;;;;;11.65;10.45;;;4.60;99.90;;;;;;5088140;28;20311;-57
2020/12/05 05:20:51;;;;;;;11.75;10.20;;;4.50;99.90;;;;;;5087467;28;20184;-57
2020/12/05 05:23:19;;;;;;;13.63;10.20;;;4.80;99.90;;;;;;5087921;28;20188;-58
2020/12/05 05:26:03;;;;;;;11.48;10.02;;;4.60;99.90;;;;;;5087420;28;20228;-57
2020/12/05 05:28:31;;;;;;;12.70;9.98;;;4.80;99.90;;;;;;5087349;28;20184;-57
2020/12/05 05:31:32;;;;;;;9.77;8.48;;;4.50;99.90;;;;;;5086958;28;20204;-57
2020/12/05 05:33:57;;;;;;;9.43;8.52;;;4.60;99.90;;;;;;5075257;28;20183;-59
2020/12/05 05:36:24;;;;;;;11.53;9.07;;;4.50;99.90;;;;;;5087376;28;20176;-56
2020/12/05 05:38:59;;;;;;;11.45;9.30;;;4.80;99.90;;;;;;5087792;28;20539;-57
2020/12/05 05:41:28;;;;;;;12.25;10.98;;;4.60;99.90;;;;;;5087562;28;20263;-57
2020/12/05 05:44:02;;;;;;;10.80;9.07;;;4.40;99.90;;;;;;5086993;28;20276;-57
2020/12/05 05:46:34;;;;;;;9.73;8.30;;;4.40;99.90;;;;;;5090358;28;20538;-57
2020/12/05 05:49:01;;;;;;;9.40;8.50;;;4.60;99.90;;;;;;5090467;28;20184;-57
2020/12/05 05:51:44;;;;;;;9.00;7.82;;;4.70;99.90;;;;;;5090599;28;20191;-58
2020/12/05 05:54:17;;;;;;;10.05;8.70;;;4.50;99.90;;;;;;5092166;28;20218;-56
2020/12/05 05:57:15;;;;;;;9.60;8.57;;;4.70;99.90;;;;;;5091923;28;20216;-56
2020/12/05 05:59:45;;;;;;;9.88;8.88;;;4.30;99.90;;;;;;5075841;28;20703;-57
2020/12/05 06:02:15;;;;;;;9.10;8.20;;;4.80;99.90;;;;;;5091492;28;20192;-56
2020/12/05 06:04:45;;;;;;;10.13;8.05;;;4.60;99.90;;;;;;5090766;28;20204;-57
2020/12/05 06:07:16;;;;;;;8.00;7.20;;;4.60;99.90;;;;;;5090737;28;20618;-57
2020/12/05 06:09:43;;;;;;;8.75;7.85;;;4.50;99.90;;;;;;5074250;28;20229;-57
2020/12/05 06:12:30;;;;;;;8.32;7.40;;;4.80;99.90;;;;;;5083745;28;20683;-57
2020/12/05 06:14:56;;;;;;;10.85;9.05;;;4.50;99.90;;;;;;5085177;28;20219;-56
2020/12/05 06:17:23;;;;;;;9.90;8.70;;;4.30;99.90;;;;;;5061170;28;20182;-57
2020/12/05 06:19:51;;;;;;;10.38;7.20;;;4.30;99.90;;;;;;5058624;28;20197;-57
2020/12/05 06:22:48;;;;;;;9.80;7.88;;;4.50;99.90;;;;;;5059073;28;20210;-57
2020/12/05 06:25:21;;;;;;;9.02;7.70;;;4.60;99.90;;;;;;5083338;28;20709;-57
2020/12/05 06:27:51;;;;;;;9.35;8.02;;;4.60;99.90;;;;;;5068472;28;20208;-56
2020/12/05 06:30:17;;;;;;;8.45;7.55;;;4.40;99.90;;;;;;5069330;28;20247;-58
2020/12/05 06:32:48;;;;;;;9.05;7.65;;;4.30;99.90;;;;;;5088303;28;20181;-56
2020/12/05 06:35:23;;;;;;;8.60;7.50;;;4.40;99.90;;;;;;5069897;28;20236;-56
2020/12/05 06:37:53;;;;;;;9.15;7.95;;;4.50;99.90;;;;;;5077898;28;20175;-56
2020/12/05 06:40:20;;;;;;;9.65;8.15;;;4.40;99.90;;;;;;5069356;28;20224;-56
2020/12/05 06:42:48;;;;;;;10.70;8.40;;;4.50;99.90;;;;;;5070968;28;20571;-56
2020/12/05 06:45:26;;;;;;;8.23;7.43;;;4.20;99.90;;;;;;5068189;28;20211;-56
2020/12/05 06:48:07;;;;;;;9.70;7.72;;;4.00;99.90;;;;;;5068807;28;20260;-60
2020/12/05 06:50:33;;;;;;;11.32;8.40;;;4.00;99.90;;;;;;5087734;28;20684;-60
2020/12/05 06:52:58;;;;;;;7.93;6.80;;;4.20;99.90;;;;;;5074252;28;20183;-60
2020/12/05 06:55:32;;;;;;;9.33;7.17;;;4.10;99.90;;;;;;5070824;28;20722;-61
2020/12/05 06:58:05;;;;;;;9.07;7.50;;;4.20;99.90;;;;;;5075741;28;20185;-60
2020/12/05 07:00:33;;;;;;;8.60;7.65;;;4.10;99.90;;;;;;5072009;28;20189;-58
2020/12/05 07:03:10;;;;;;;9.63;7.43;;;3.80;99.90;;;;;;5070035;28;20196;-60
2020/12/05 07:05:40;;;;;;;6.72;6.07;;;3.80;99.90;;;;;;5092619;28;20210;-59
2020/12/05 07:08:23;;;;;;;7.15;6.45;;;3.80;99.90;;;;;;5071955;28;20654;-61
2020/12/05 07:10:58;;;;;;;8.20;7.00;;;4.30;99.90;;;;;;5069768;28;20197;-61
2020/12/05 07:13:42;;;;;;;7.10;6.40;;;4.00;99.90;;;;;;5075660;28;20230;-60
2020/12/05 07:16:22;;;;;;;7.10;6.40;;;4.30;99.90;;;;;;5063516;28;20218;-58
2020/12/05 07:18:53;;;;;;;6.63;6.03;;;4.00;99.90;;;;;;5072589;28;20184;-59
2020/12/05 07:21:20;;;;;;;8.60;6.35;;;4.30;99.90;;;;;;5067726;28;20219;-59
2020/12/05 07:23:46;;;;;;;9.30;6.90;;;4.20;99.90;;;;;;5069246;28;20307;-57
2020/12/05 07:26:13;;;;;;;8.38;6.35;;;4.30;99.90;;;;;;5069630;28;20263;-60
2020/12/05 07:28:47;;;;;;;7.15;6.18;;;4.40;99.90;;;;;;5067689;28;20201;-60
2020/12/05 07:31:14;;;;;;;6.78;6.07;;;4.70;99.90;;;;;;5068541;28;20298;-60
2020/12/05 07:33:40;;;;;;;7.05;6.28;;;4.50;99.90;;;;;;5077486;28;20561;-60
2020/12/05 07:36:08;;;;;;;7.00;6.03;;;4.50;99.90;;;;;;5068982;28;20202;-59
2020/12/05 07:38:35;;;;;;;7.95;5.60;;;4.20;99.90;;;;;;5072345;28;20180;-59
2020/12/05 07:41:08;;;;;;;5.95;5.35;;;4.50;99.90;;;;;;5069520;28;20679;-59
2020/12/05 07:43:34;;;;;;;5.80;5.20;;;4.20;99.90;;;;;;5066134;28;20203;-59
2020/12/05 07:46:03;;;;;;;7.03;5.87;;;4.30;99.90;;;;;;5067119;28;20201;-59
2020/12/05 07:48:29;;;;;;;6.50;5.90;;;4.30;99.90;;;;;;5067601;28;20197;-59
2020/12/05 07:50:55;;;;;;;8.33;5.97;;;4.20;99.90;;;;;;5067859;28;20218;-59
2020/12/05 07:53:34;;;;;;;7.80;5.43;;;4.40;99.90;;;;;;5070564;28;20197;-59
2020/12/05 07:56:17;;;;;;;5.90;5.30;;;4.20;99.90;;;;;;5072011;28;20673;-60
2020/12/05 07:58:44;;;;;;;5.65;4.75;;;4.50;99.90;;;;;;5068718;28;20280;-59
2020/12/05 08:01:23;;;;;;;5.30;4.80;;;4.20;99.90;;;;;;5067496;28;20719;-59
2020/12/05 08:04:13;;;;;;;5.97;5.38;;;4.50;99.90;;;;;;5079933;28;20276;-60
2020/12/05 08:07:06;;;;;;;5.80;5.20;;;4.50;99.90;;;;;;5068014;28;20723;-59
2020/12/05 08:09:34;;;;;;;7.43;5.35;;;4.30;99.90;;;;;;5079873;28;20313;-59
2020/12/05 08:12:03;;;;;;;6.93;5.40;;;4.30;99.90;;;;;;5068146;28;20272;-59
2020/12/05 08:14:31;;;;;;;6.40;5.25;;;4.20;99.90;;;;;;5066937;28;20267;-60
2020/12/05 08:17:01;;;;;;;5.93;5.22;;;4.50;99.90;;;;;;5068454;28;20185;-59
2020/12/05 08:19:27;;;;;;;5.15;4.65;;;4.70;99.90;;;;;;5069352;28;20182;-59
2020/12/05 08:21:53;;;;;;;6.13;5.53;;;4.40;99.90;;;;;;5067135;28;20190;-60
2020/12/05 08:24:18;;;;;;;6.57;5.10;;;4.60;99.90;;;;;;5067852;28;20764;-60
2020/12/05 08:26:48;;;;;;;6.27;5.67;;;4.50;99.90;;;;;;5068724;28;20177;-59
2020/12/05 08:29:14;;;;;;;5.70;4.95;;;4.40;99.90;;;;;;5078357;28;20190;-60
2020/12/05 08:31:41;;;;;;;5.30;4.80;;;4.80;99.90;;;;;;5069154;28;20198;-60
2020/12/05 08:34:07;;;;;;;6.03;4.10;;;4.80;99.90;;;;;;5083883;28;20198;-60
2020/12/05 08:36:44;;;;;;;5.85;5.13;;;4.80;99.90;;;;;;5076667;28;20182;-60
2020/12/05 08:39:13;;;;;;;4.75;4.25;;;4.80;99.90;;;;;;5067806;28;20652;-59
2020/12/05 08:41:42;;;;;;;5.55;4.60;;;4.90;99.90;;;;;;5068460;28;20214;-60
2020/12/05 08:44:13;;;;;;;5.60;5.07;;;4.70;99.90;;;;;;5077022;28;20216;-59
2020/12/05 08:46:39;;;;;;;10.38;7.47;;;4.80;99.90;;;;;;5067621;28;20177;-59
2020/12/05 08:49:18;;;;;;;6.83;5.50;;;5.30;99.90;;;;;;5082200;28;20205;-60
2020/12/05 08:51:46;;;;;;;6.72;4.57;;;5.70;99.90;;;;;;5082328;28;20220;-59
2020/12/05 08:54:13;;;;;;;4.43;4.03;;;5.50;99.90;;;;;;5067691;28;20493;-59
2020/12/05 08:56:39;;;;;;;7.30;5.88;;;5.40;99.90;;;;;;5067641;28;20693;-59
2020/12/05 08:59:04;;;;;;;5.90;5.05;;;5.50;99.90;;;;;;5083809;28;20192;-59
2020/12/05 09:01:41;;;;;;;6.00;5.37;;;5.40;99.90;;;;;;5071655;28;20174;-60
2020/12/05 09:04:11;;;;;;;5.32;4.38;;;5.40;99.90;;;;;;5067937;28;20187;-60
2020/12/05 09:06:37;;;;;;;4.75;4.30;;;5.30;99.90;;;;;;5077031;28;20226;-59
2020/12/05 09:09:03;;;;;;;4.10;3.78;;;5.30;99.90;;;;;;5065847;28;20187;-59
2020/12/05 09:11:29;;;;;;;5.37;4.43;;;5.40;99.90;;;;;;5062726;28;20186;-59
2020/12/05 09:13:54;;;;;;;6.93;4.57;;;5.30;99.90;;;;;;5066038;28;20195;-59
2020/12/05 09:16:30;;;;;;;4.90;4.30;;;5.50;99.90;;;;;;5064711;28;20182;-59
2020/12/05 09:18:56;;;;;;;5.55;4.70;;;5.60;99.90;;;;;;5066013;28;20186;-59
2020/12/05 09:21:22;;;;;;;5.00;4.60;;;5.50;99.90;;;;;;5069935;28;20247;-59
2020/12/05 09:24:06;;;;;;;5.40;4.50;;;5.60;99.90;;;;;;5073443;28;20235;-59
2020/12/05 09:26:32;;;;;;;6.75;5.70;;;5.90;99.90;;;;;;5070289;28;20667;-60
2020/12/05 09:28:58;;;;;;;4.47;4.07;;;5.70;99.90;;;;;;5067616;28;20313;-60
2020/12/05 09:31:24;;;;;;;5.63;3.43;;;5.50;99.90;;;;;;5065508;28;20469;-59
2020/12/05 09:33:50;;;;;;;4.95;4.50;;;5.60;99.90;;;;;;5066493;28;20445;-61
2020/12/05 09:36:15;;;;;;;6.37;4.70;;;5.60;99.90;;;;;;5065528;28;20698;-59
2020/12/05 09:38:41;;;;;;;3.83;3.53;;;5.10;99.90;;;;;;5062294;28;20180;-61
2020/12/05 09:41:06;;;;;;;4.60;4.20;;;5.40;99.90;;;;;;5065388;28;20697;-57
2020/12/05 09:43:32;;;;;;;5.27;4.00;;;5.80;99.90;;;;;;5065516;28;20196;-59
2020/12/05 09:45:58;;;;;;;4.43;3.90;;;5.90;99.90;;;;;;5082007;28;20211;-58
2020/12/05 09:48:23;;;;;;;5.13;4.67;;;6.20;99.90;;;;;;5066351;28;20698;-58
2020/12/05 09:50:49;;;;;;;5.60;4.60;;;6.20;99.90;;;;;;5064522;28;20204;-58
2020/12/05 09:53:15;;;;;;;4.33;3.93;;;6.00;99.90;;;;;;5076081;28;20202;-58
2020/12/05 09:55:40;;;;;;;5.53;4.83;;;6.00;99.90;;;;;;5067011;28;20459;-58
2020/12/05 09:58:06;;;;;;;6.63;4.50;;;6.00;99.90;;;;;;5067657;28;20295;-59
2020/12/05 10:00:32;;;;;;;4.70;3.93;;;6.00;99.90;;;;;;5074399;28;20176;-58
2020/12/05 10:02:58;;;;;;;4.10;3.75;;;6.20;99.90;;;;;;5068365;28;20718;-58
2020/12/05 10:05:23;;;;;;;4.80;4.30;;;6.40;99.90;;;;;;5065825;28;20303;-58
2020/12/05 10:07:49;;;;;;;5.00;4.53;;;6.50;99.90;;;;;;5075044;28;20191;-58
2020/12/05 10:10:15;;;;;;;5.30;4.90;;;6.40;99.90;;;;;;5068004;28;20216;-58
2020/12/05 10:12:44;;;;;;;5.97;5.37;;;6.20;99.90;;;;;;5067358;28;20230;-58
2020/12/05 10:15:14;;;;;;;6.22;5.68;;;6.00;99.90;;;;;;5065709;28;20269;-57
2020/12/05 10:17:43;;;;;;;7.30;5.38;;;5.80;99.90;;;;;;5069343;28;20202;-58
2020/12/05 10:20:09;;;;;;;7.20;6.50;;;6.00;99.90;;;;;;5066958;28;20181;-59
2020/12/05 10:22:35;;;;;;;6.47;5.87;;;5.70;99.90;;;;;;5065430;28;20194;-59
2020/12/05 10:25:02;;;;;;;7.68;6.68;;;6.00;99.90;;;;;;5067883;28;20503;-60
2020/12/05 10:27:27;;;;;;;6.32;5.82;;;6.20;99.90;;;;;;5066942;28;20191;-60
2020/12/05 10:29:53;;;;;;;11.40;9.60;;;5.80;99.90;;;;;;5062228;28;20197;-60
2020/12/05 10:32:22;;;;;;;6.80;6.10;;;6.00;99.90;;;;;;5068862;28;20190;-60
2020/12/05 10:34:48;;;;;;;6.55;5.45;;;6.20;99.90;;;;;;5068109;28;20207;-60
2020/12/05 10:37:13;;;;;;;5.87;5.30;;;6.30;99.90;;;;;;5068637;28;20199;-60
2020/12/05 10:39:39;;;;;;;5.77;5.27;;;6.10;99.90;;;;;;5070268;28;20191;-60
2020/12/05 10:42:05;;;;;;;6.73;6.03;;;6.10;99.90;;;;;;5070240;28;20192;-59
2020/12/05 10:44:30;;;;;;;8.00;6.63;;;6.30;99.90;;;;;;5071134;28;20589;-60
2020/12/05 10:46:56;;;;;;;6.50;5.97;;;6.10;99.90;;;;;;5071516;28;20648;-60
2020/12/05 10:49:22;;;;;;;6.80;6.20;;;6.30;99.90;;;;;;5070107;28;20966;-60
2020/12/05 10:51:49;;;;;;;7.63;6.93;;;6.10;99.90;;;;;;5070112;28;20285;-60
2020/12/05 10:54:15;;;;;;;6.82;6.20;;;6.00;99.90;;;;;;5068672;28;20203;-60
2020/12/05 10:56:41;;;;;;;6.50;5.80;;;6.00;99.90;;;;;;5066067;28;20201;-60
2020/12/05 10:59:08;;;;;;;6.93;6.10;;;6.10;99.90;;;;;;5067128;28;20180;-59
2020/12/05 11:01:34;;;;;;;6.82;6.15;;;6.20;99.90;;;;;;5068961;28;20204;-60
2020/12/05 11:04:00;;;;;;;7.40;6.20;;;6.10;99.90;;;;;;5068216;28;20183;-59
2020/12/05 11:06:27;;;;;;;8.35;6.80;;;5.70;99.90;;;;;;5069948;28;20592;-59
2020/12/05 11:08:53;;;;;;;7.35;6.65;;;5.90;99.90;;;;;;5069394;28;20552;-59
2020/12/05 11:11:19;;;;;;;11.25;6.93;;;5.80;99.90;;;;;;5069623;28;20660;-59
2020/12/05 11:13:45;;;;;;;8.05;7.20;;;5.80;99.90;;;;;;5069514;28;20653;-59
2020/12/05 11:16:11;;;;;;;8.90;7.60;;;5.90;99.90;;;;;;5068828;28;20215;-59
2020/12/05 11:18:38;;;;;;;8.60;7.77;;;5.90;99.90;;;;;;5068628;28;21014;-59
2020/12/05 11:21:04;;;;;;;8.10;7.30;;;6.00;99.90;;;;;;5083087;28;20186;-59
2020/12/05 11:23:30;;;;;;;8.95;8.00;;;5.80;99.90;;;;;;5068279;28;20237;-59
2020/12/05 11:25:56;;;;;;;10.17;8.87;;;6.00;99.90;;;;;;5069323;28;20702;-59
2020/12/05 11:28:21;;;;;;;9.07;8.07;;;6.00;99.90;;;;;;5067730;28;20286;-63
2020/12/05 11:30:47;;;;;;;8.37;7.57;;;6.10;99.90;;;;;;5068462;28;20228;-59
2020/12/05 11:33:15;;;;;;;9.33;8.37;;;5.90;99.90;;;;;;5069396;28;20834;-59
2020/12/05 11:35:41;;;;;;;9.90;7.45;;;6.10;99.90;;;;;;5069074;28;20222;-59
2020/12/05 11:38:07;;;;;;;9.83;7.63;;;6.00;99.90;;;;;;5067769;28;20185;-59
2020/12/05 11:40:32;;;;;;;8.67;7.87;;;6.00;99.90;;;;;;5068953;28;20213;-60
2020/12/05 11:42:58;;;;;;;9.03;7.70;;;6.30;99.90;;;;;;5078999;28;20180;-60
2020/12/05 11:45:23;;;;;;;10.57;9.17;;;5.60;99.90;;;;;;5064523;28;20712;-60
2020/12/05 11:47:49;;;;;;;9.40;8.13;;;6.40;99.90;;;;;;5068139;28;20212;-59
2020/12/05 11:50:15;;;;;;;9.73;8.27;;;6.30;99.90;;;;;;5068176;28;20626;-59
2020/12/05 11:52:40;;;;;;;10.30;9.30;;;6.70;99.90;;;;;;5068472;28;20188;-59
2020/12/05 11:55:06;;;;;;;8.80;7.20;;;6.50;99.90;;;;;;5068659;28;20205;-60
2020/12/05 11:57:31;;;;;;;9.93;8.93;;;6.70;99.90;;;;;;5068920;28;20197;-59
2020/12/05 11:59:57;;;;;;;10.00;8.73;;;6.40;99.90;;;;;;5085204;28;20195;-61
2020/12/05 12:02:22;;;;;;;8.73;7.83;;;6.30;99.90;;;;;;5070404;28;20185;-58
2020/12/05 12:04:48;;;;;;;9.23;8.33;;;6.20;99.90;;;;;;5068174;28;20622;-58
2020/12/05 12:07:14;;;;;;;9.20;8.30;;;6.10;99.90;;;;;;5070480;28;20226;-58
2020/12/05 12:09:39;;;;;;;10.73;9.63;;;6.00;99.90;;;;;;5079326;28;20224;-58
2020/12/05 12:12:05;;;;;;;9.10;8.20;;;6.30;99.90;;;;;;5079025;28;20743;-58
2020/12/05 12:14:31;;;;;;;11.37;7.17;;;6.20;99.90;;;;;;5069332;28;20209;-58
2020/12/05 12:16:56;;;;;;;9.50;8.10;;;6.20;99.90;;;;;;5068726;28;20197;-58
2020/12/05 12:19:22;;;;;;;9.77;7.67;;;6.20;99.90;;;;;;5067941;28;20442;-59
2020/12/05 12:21:48;;;;;;;14.60;9.87;;;6.40;99.90;;;;;;5063025;28;20178;-61
2020/12/05 12:24:13;;;;;;;10.20;8.60;;;5.80;99.90;;;;;;5067144;28;20768;-61
2020/12/05 12:26:39;;;;;;;9.67;8.67;;;6.20;99.90;;;;;;5064898;28;20187;-58
2020/12/05 12:29:04;;;;;;;11.00;9.20;;;6.50;99.90;;;;;;5065337;28;20700;-61
2020/12/05 12:31:30;;;;;;;9.90;8.90;;;6.60;99.90;;;;;;5066791;28;20236;-61
2020/12/05 12:33:56;;;;;;;13.60;10.27;;;6.50;99.90;;;;;;5065621;28;20189;-59
2020/12/05 12:36:21;;;;;;;10.00;9.00;;;6.50;99.90;;;;;;5065430;28;20542;-61
2020/12/05 12:38:48;;;;;;;9.87;8.97;;;6.60;99.90;;;;;;5079025;28;20218;-61
2020/12/05 12:41:18;;;;;;;9.40;8.43;;;6.40;99.90;;;;;;5069339;28;20468;-59
2020/12/05 12:43:44;;;;;;;8.13;7.32;;;6.10;99.90;;;;;;5069347;28;20196;-59
2020/12/05 12:46:10;;;;;;;10.40;9.27;;;6.60;99.90;;;;;;5083032;28;20731;-58
2020/12/05 12:51:01;;;;;;;8.13;7.33;;;6.40;99.90;;;;;;5064140;28;20239;-57
2020/12/05 12:53:27;;;;;;;7.60;6.90;;;6.20;99.90;;;;;;5066966;28;20235;-58
2020/12/05 12:55:53;;;;;;;8.23;7.27;;;6.60;99.90;;;;;;5063890;28;20310;-59
2020/12/05 12:58:43;;;;;;;8.27;7.37;;;6.80;99.90;;;;;;5067783;28;20181;-57